gps_nmea_reception.txt

Kevin Subileau, 01/18/2011 03:16 PM

Download (7.39 KB)

 
1
ROM    OK
2
RS232C OK
3
CLOCK  OK
4

    
5
        ----< SONY GLOBAL POSITIONING SYSTEM >-----
6

    
7
                               (C)Copyright 1991,1997   Sony Corporation
8

    
9
$GPVTG,000.0,T,,M,000.0,N,000.0,K*60
10
$GPGGA,062222,3537.8333,N,13944.6667,E,0,00,99.9,0100,M,,M,060,D219*06
11
$GPGLL,3537.8333,N,13944.6667,E,062222,V*38
12
$GPRMC,062222,V,3537.8333,N,13944.6667,E,000.0,000.0,030222,,*0E
13
$GPZDA,062222,03,02,2022,,*4D
14
$GPGSV,1,1,00,,,,,,,,,,,,,,,,*79
15
$GPVTG,000.0,T,,M,000.0,N,000.0,K*60
16
$GPGGA,062223,3537.8333,N,13944.6667,E,0,00,99.9,0100,M,,M,000,0000*7F
17
$GPGLL,3537.8333,N,13944.6667,E,062223,V*39
18
$GPRMC,062223,V,3537.8333,N,13944.6667,E,000.0,000.0,030222,,*0F
19
$GPZDA,062223,03,02,2022,,*4C
20
$GPGSA,A,1,,,,,,,,,,,,,99.9,99.9,99.9*09
21
$PSNY,0,00,05,500,06,06,06,06*14
22
$GPVTG,000.0,T,,M,000.0,N,000.0,K*60
23
$GPGGA,062224,3537.8333,N,13944.6667,E,0,00,99.9,0100,M,,M,000,0000*78
24
$GPGLL,3537.8333,N,13944.6667,E,062224,V*3E
25
$GPRMC,062224,V,3537.8333,N,13944.6667,E,000.0,000.0,030222,,*08
26
$GPZDA,062224,03,02,2022,,*4B
27
$GPGSV,1,1,00,,,,,,,,,,,,,,,,*79
28
$GPVTG,000.0,T,,M,000.0,N,000.0,K*60
29
$GPGGA,062225,3537.8333,N,13944.6667,E,0,00,99.9,0100,M,,M,000,0000*79
30
$GPGLL,3537.8333,N,13944.6667,E,062225,V*3F
31
$GPRMC,062225,V,3537.8333,N,13944.6667,E,000.0,000.0,030222,,*09
32
$GPZDA,062225,03,02,2022,,*4A
33
$GPGSA,A,1,,,,,,,,,,,,,99.9,99.9,99.9*09
34
$PSNY,0,00,05,500,06,06,06,06*14
35
$GPVTG,000.0,T,,M,000.0,N,000.0,K*60
36
$GPGGA,062226,3537.8333,N,13944.6667,E,0,00,99.9,0100,M,,M,000,0000*7A
37
$GPGLL,3537.8333,N,13944.6667,E,062226,V*3C
38
$GPRMC,062226,V,3537.8333,N,13944.6667,E,000.0,000.0,030222,,*0A
39
$GPZDA,062226,03,02,2022,,*49
40
$GPGSV,1,1,00,,,,,,,,,,,,,,,,*79
41
$GPVTG,000.0,T,,M,000.0,N,000.0,K*60
42
$GPGGA,062227,3537.8333,N,13944.6667,E,0,00,99.9,0100,M,,M,000,0000*7B
43
$GPGLL,3537.8333,N,13944.6667,E,062227,V*3D
44
$GPRMC,062227,V,3537.8333,N,13944.6667,E,000.0,000.0,030222,,*0B
45
$GPZDA,062227,03,02,2022,,*48
46
$GPGSA,A,1,,,,,,,,,,,,,99.9,99.9,99.9*09
47
$PSNY,0,00,05,500,06,06,06,06*14
48
$GPVTG,000.0,T,,M,000.0,N,000.0,K*60
49
$GPGGA,062228,3537.8333,N,13944.6667,E,0,00,99.9,0100,M,,M,000,0000*74
50
$GPGLL,3537.8333,N,13944.6667,E,062228,V*32
51
$GPRMC,062228,V,3537.8333,N,13944.6667,E,000.0,000.0,030222,,*04
52
$GPZDA,062228,03,02,2022,,*47
53
$GPGSV,1,1,00,,,,,,,,,,,,,,,,*79
54
$GPVTG,000.0,T,,M,000.0,N,000.0,K*60
55
$GPGGA,062229,3537.8333,N,13944.6667,E,0,00,99.9,0100,M,,M,000,0000*75
56
$GPGLL,3537.8333,N,13944.6667,E,062229,V*33
57
$GPRMC,062229,V,3537.8333,N,13944.6667,E,000.0,000.0,030222,,*05
58
$GPZDA,062229,03,02,2022,,*46
59
$GPGSA,A,1,,,,,,,,,,,,,99.9,99.9,99.9*09
60
$PSNY,0,00,05,500,06,06,06,06*14
61
$GPVTG,000.0,T,,M,000.0,N,000.0,K*60
62
$GPGGA,062230,3537.8333,N,13944.6667,E,0,00,99.9,0100,M,,M,000,0000*7D
63
$GPGLL,3537.8333,N,13944.6667,E,062230,V*3B
64
$GPRMC,062230,V,3537.8333,N,13944.6667,E,000.0,000.0,030222,,*0D
65
$GPZDA,062230,03,02,2022,,*4E
66
$GPGSV,1,1,00,,,,,,,,,,,,,,,,*79
67
$GPVTG,000.0,T,,M,000.0,N,000.0,K*60
68
$GPGGA,062231,3537.8333,N,13944.6667,E,0,00,99.9,0100,M,,M,000,0000*7C
69
$GPGLL,3537.8333,N,13944.6667,E,062231,V*3A
70
$GPRMC,062231,V,3537.8333,N,13944.6667,E,000.0,000.0,030222,,*0C
71
$GPZDA,062231,03,02,2022,,*4F
72
$GPGSA,A,1,,,,,,,,,,,,,99.9,99.9,99.9*09
73
$PSNY,0,00,05,500,06,06,06,06*14
74
$GPVTG,000.0,T,,M,000.0,N,000.0,K*60
75
$GPGGA,062232,3537.8333,N,13944.6667,E,0,00,99.9,0100,M,,M,000,0000*7F
76
$GPGLL,3537.8333,N,13944.6667,E,062232,V*39
77
$GPRMC,062232,V,3537.8333,N,13944.6667,E,000.0,000.0,030222,,*0F
78
$GPZDA,062232,03,02,2022,,*4C
79
$GPGSV,1,1,00,,,,,,,,,,,,,,,,*79
80
$GPVTG,000.0,T,,M,000.0,N,000.0,K*60
81
$GPGGA,062233,3537.8333,N,13944.6667,E,0,00,99.9,0100,M,,M,000,0000*7E
82
$GPGLL,3537.8333,N,13944.6667,E,062233,V*38
83
$GPRMC,062233,V,3537.8333,N,13944.6667,E,000.0,000.0,030222,,*0E
84
$GPZDA,062233,03,02,2022,,*4D
85
$GPGSA,A,1,,,,,,,,,,,,,99.9,99.9,99.9*09
86
$PSNY,0,00,05,500,06,06,06,06*14
87
$GPVTG,000.0,T,,M,000.0,N,000.0,K*60
88
$GPGGA,062234,3537.8333,N,13944.6667,E,0,00,99.9,0100,M,,M,000,0000*79
89
$GPGLL,3537.8333,N,13944.6667,E,062234,V*3F
90
$GPRMC,062234,V,3537.8333,N,13944.6667,E,000.0,000.0,030222,,*09
91
$GPZDA,062234,03,02,2022,,*4A
92
$GPGSV,1,1,00,,,,,,,,,,,,,,,,*79
93
$GPVTG,000.0,T,,M,000.0,N,000.0,K*60
94
$GPGGA,062235,3537.8333,N,13944.6667,E,0,00,99.9,0100,M,,M,000,0000*78
95
$GPGLL,3537.8333,N,13944.6667,E,062235,V*3E
96
$GPRMC,062235,V,3537.8333,N,13944.6667,E,000.0,000.0,030222,,*08
97
$GPZDA,062235,03,02,2022,,*4B
98
$GPGSA,A,1,,,,,,,,,,,,,99.9,99.9,99.9*09
99
$PSNY,0,00,05,500,06,06,06,06*14
100
$GPVTG,000.0,T,,M,000.0,N,000.0,K*60
101
$GPGGA,062236,3537.8333,N,13944.6667,E,0,00,99.9,0100,M,,M,000,0000*7B
102
$GPGLL,3537.8333,N,13944.6667,E,062236,V*3D
103
$GPRMC,062236,V,3537.8333,N,13944.6667,E,000.0,000.0,030222,,*0B
104
$GPZDA,062236,03,02,2022,,*48
105
$GPGSV,1,1,00,,,,,,,,,,,,,,,,*79
106
$GPVTG,000.0,T,,M,000.0,N,000.0,K*60
107
$GPGGA,062237,3537.8333,N,13944.6667,E,0,00,99.9,0100,M,,M,000,0000*7A
108
$GPGLL,3537.8333,N,13944.6667,E,062237,V*3C
109
$GPRMC,062237,V,3537.8333,N,13944.6667,E,000.0,000.0,030222,,*0A
110
$GPZDA,062237,03,02,2022,,*49
111
$GPGSA,A,1,,,,,,,,,,,,,99.9,99.9,99.9*09
112
$PSNY,0,00,05,500,06,06,06,06*14
113
$GPVTG,000.0,T,,M,000.0,N,000.0,K*60
114
$GPGGA,062238,3537.8333,N,13944.6667,E,0,00,99.9,0100,M,,M,000,0000*75
115
$GPGLL,3537.8333,N,13944.6667,E,062238,V*33
116
$GPRMC,062238,V,3537.8333,N,13944.6667,E,000.0,000.0,030222,,*05
117
$GPZDA,062238,03,02,2022,,*46
118
$GPGSV,1,1,00,,,,,,,,,,,,,,,,*79
119
$GPVTG,000.0,T,,M,000.0,N,000.0,K*60
120
$GPGGA,062239,3537.8333,N,13944.6667,E,0,00,99.9,0100,M,,M,000,0000*74
121
$GPGLL,3537.8333,N,13944.6667,E,062239,V*32
122
$GPRMC,062239,V,3537.8333,N,13944.6667,E,000.0,000.0,030222,,*04
123
$GPZDA,062239,03,02,2022,,*47
124
$GPGSA,A,1,,,,,,,,,,,,,99.9,99.9,99.9*09
125
$PSNY,0,00,05,500,06,06,06,06*14
126
$GPVTG,000.0,T,,M,000.0,N,000.0,K*60
127
$GPGGA,062240,3537.8333,N,13944.6667,E,0,00,99.9,0100,M,,M,000,0000*7A
128
$GPGLL,3537.8333,N,13944.6667,E,062240,V*3C
129
$GPRMC,062240,V,3537.8333,N,13944.6667,E,000.0,000.0,030222,,*0A
130
$GPZDA,062240,03,02,2022,,*49
131
$GPGSV,1,1,00,,,,,,,,,,,,,,,,*79
132
$GPVTG,000.0,T,,M,000.0,N,000.0,K*60
133
$GPGGA,062241,3537.8333,N,13944.6667,E,0,00,99.9,0100,M,,M,000,0000*7B
134
$GPGLL,3537.8333,N,13944.6667,E,062241,V*3D
135
$GPRMC,062241,V,3537.8333,N,13944.6667,E,000.0,000.0,030222,,*0B
136
$GPZDA,062241,03,02,2022,,*48
137
$GPGSA,A,1,,,,,,,,,,,,,99.9,99.9,99.9*09
138
$PSNY,0,00,05,500,06,06,06,06*14
139
$GPVTG,000.0,T,,M,000.0,N,000.0,K*60
140
$GPGGA,062242,3537.8333,N,13944.6667,E,0,00,99.9,0100,M,,M,000,0000*78
141
$GPGLL,3537.8333,N,13944.6667,E,062242,V*3E
142
$GPRMC,062242,V,3537.8333,N,13944.6667,E,000.0,000.0,030222,,*08
143
$GPZDA,062242,03,02,2022,,*4B
144
$GPGSV,1,1,00,,,,,,,,,,,,,,,,*79
145
$GPVTG,000.0,T,,M,000.0,N,000.0,K*60
146
$GPGGA,062243,3537.8333,N,13944.6667,E,0,00,99.9,0100,M,,M,000,0000*79
147
$GPGLL,3537.8333,N,13944.6667,E,062243,V*3F
148
$GPRMC,062243,V,3537.8333,N,13944.6667,E,000.0,000.0,030222,,*09
149
$GPZDA,062243,03,02,2022,,*4A
150
$GPGSA,A,1,,,,,,,,,,,,,99.9,99.9,99.9*09
151
$PSNY,0,00,05,500,06,06,06,06*14
152
$GPVTG,000.0,T,,M,000.0,N,000.0,K*60
153
$GPGGA,062244,3537.8333,N,13944.6667,E,0,00,99.9,0100,M,,M,000,0000*7E
154
$GPGLL,3537.8333,N,13944.6667,E,062244,V*38
155
$GPRMC,062244,V,3537.8333,N,13944.6667,E,000.0,000.0,030222,,*0E
156
$GPZDA,062244,03,02,2022,,*4D
157
$GPGSV,1,1,00,,,,,,,,,,,,,,,,*79
158
$GPVTG,000.0,T,,M,000.0,N,000.0,K*60
159
$GPGGA,062245,3537.8333,N,13944.6667,E,0,00,99.9,0100,M,,M,000,0000*7F
160
$GPGLL,3537.8333,N,13944.6667,E,062245,V*39
161
$GPRMC,062245,V,3537.8333,N,13944.6667,E,000.0,000.0,030222,,*0F
162
$GPZDA,062245,03,02,2022,,*4C
163
$GPGSA,A,1,,,,,,,,,,,,,99.9,99.9,99.9*09
164
$PSNY,0,00,05,500,06,06,06,06*14
165
$GPVTG,000.0,T,,M,000.0,N,000.0,K*60